sensor_id;sensor_type;location;lat;lon;timestamp;pressure;altitude;pressure_sealevel;temperature;humidity
50093;BME280;35974;47.752;10.290;2023-03-04T00:02:07;94153.44;;;-1.98;100.00
50093;BME280;35974;47.752;10.290;2023-03-04T00:04:34;94141.00;;;-2.03;100.00
50093;BME280;35974;47.752;10.290;2023-03-04T00:07:00;94134.91;;;-2.02;100.00
50093;BME280;35974;47.752;10.290;2023-03-04T00:09:27;94150.63;;;-1.83;100.00
50093;BME280;35974;47.752;10.290;2023-03-04T00:11:53;94163.16;;;-1.80;100.00
50093;BME280;35974;47.752;10.290;2023-03-04T00:14:20;94148.78;;;-1.93;100.00
50093;BME280;35974;47.752;10.290;2023-03-04T00:16:46;94132.69;;;-1.95;100.00
50093;BME280;35974;47.752;10.290;2023-03-04T00:19:14;94164.78;;;-1.68;100.00
50093;BME280;35974;47.752;10.290;2023-03-04T00:21:40;94167.31;;;-1.57;100.00
50093;BME280;35974;47.752;10.290;2023-03-04T00:24:09;94157.13;;;-1.47;100.00
50093;BME280;35974;47.752;10.290;2023-03-04T00:26:35;94146.25;;;-1.72;100.00
50093;BME280;35974;47.752;10.290;2023-03-04T00:29:02;94146.38;;;-1.73;100.00
50093;BME280;35974;47.752;10.290;2023-03-04T00:31:28;94139.59;;;-1.74;100.00
50093;BME280;35974;47.752;10.290;2023-03-04T00:33:55;94155.44;;;-1.69;100.00
50093;BME280;35974;47.752;10.290;2023-03-04T00:36:21;94165.03;;;-1.71;100.00
50093;BME280;35974;47.752;10.290;2023-03-04T00:38:47;94153.16;;;-1.72;100.00
50093;BME280;35974;47.752;10.290;2023-03-04T00:41:14;94151.25;;;-1.70;100.00
50093;BME280;35974;47.752;10.290;2023-03-04T00:43:40;94161.03;;;-1.64;100.00
50093;BME280;35974;47.752;10.290;2023-03-04T00:46:07;94138.88;;;-1.65;100.00
50093;BME280;35974;47.752;10.290;2023-03-04T00:48:33;94165.19;;;-1.52;100.00
50093;BME280;35974;47.752;10.290;2023-03-04T00:51:00;94177.56;;;-1.57;100.00
50093;BME280;35974;47.752;10.290;2023-03-04T00:53:26;94165.97;;;-1.51;100.00
50093;BME280;35974;47.752;10.290;2023-03-04T00:55:53;94159.16;;;-1.62;100.00
50093;BME280;35974;47.752;10.290;2023-03-04T00:58:19;94167.53;;;-1.60;100.00
50093;BME280;35974;47.752;10.290;2023-03-04T01:00:46;94144.50;;;-1.71;100.00
50093;BME280;35974;47.752;10.290;2023-03-04T01:03:13;94160.78;;;-1.61;100.00
50093;BME280;35974;47.752;10.290;2023-03-04T01:05:39;94145.13;;;-1.58;100.00
50093;BME280;35974;47.752;10.290;2023-03-04T01:08:12;94116.03;;;-1.68;100.00
50093;BME280;35974;47.752;10.290;2023-03-04T01:10:38;94142.75;;;-1.50;100.00
50093;BME280;35974;47.752;10.290;2023-03-04T01:13:04;94131.03;;;-1.31;100.00
50093;BME280;35974;47.752;10.290;2023-03-04T01:15:32;94135.91;;;-1.28;100.00
50093;BME280;35974;47.752;10.290;2023-03-04T01:17:58;94130.78;;;-1.28;100.00
50093;BME280;35974;47.752;10.290;2023-03-04T01:20:25;94152.16;;;-1.39;100.00
50093;BME280;35974;47.752;10.290;2023-03-04T01:22:51;94134.88;;;-1.58;100.00
50093;BME280;35974;47.752;10.290;2023-03-04T01:25:18;94146.88;;;-1.91;100.00
50093;BME280;35974;47.752;10.290;2023-03-04T01:27:50;94145.78;;;-2.09;100.00
50093;BME280;35974;47.752;10.290;2023-03-04T01:30:17;94141.78;;;-2.02;100.00
50093;BME280;35974;47.752;10.290;2023-03-04T01:32:43;94138.97;;;-1.88;100.00
50093;BME280;35974;47.752;10.290;2023-03-04T01:35:10;94139.84;;;-1.77;100.00
50093;BME280;35974;47.752;10.290;2023-03-04T01:37:36;94124.22;;;-1.74;100.00
50093;BME280;35974;47.752;10.290;2023-03-04T01:40:03;94131.88;;;-1.63;100.00
50093;BME280;35974;47.752;10.290;2023-03-04T01:42:33;94122.69;;;-1.66;100.00
50093;BME280;35974;47.752;10.290;2023-03-04T01:45:01;94138.63;;;-1.62;100.00
50093;BME280;35974;47.752;10.290;2023-03-04T01:47:30;94108.81;;;-1.74;100.00
50093;BME280;35974;47.752;10.290;2023-03-04T01:49:57;94131.13;;;-1.54;100.00
50093;BME280;35974;47.752;10.290;2023-03-04T01:52:26;94125.75;;;-1.51;100.00
50093;BME280;35974;47.752;10.290;2023-03-04T01:54:53;94107.84;;;-1.62;100.00
50093;BME280;35974;47.752;10.290;2023-03-04T01:57:22;94137.91;;;-1.53;100.00
50093;BME280;35974;47.752;10.290;2023-03-04T02:02:45;94125.81;;;-1.62;100.00
50093;BME280;35974;47.752;10.290;2023-03-04T02:05:13;94125.13;;;-1.64;100.00
50093;BME280;35974;47.752;10.290;2023-03-04T02:07:42;94099.72;;;-1.67;100.00
50093;BME280;35974;47.752;10.290;2023-03-04T02:10:10;94118.50;;;-1.45;100.00
50093;BME280;35974;47.752;10.290;2023-03-04T02:12:38;94117.38;;;-1.53;100.00
50093;BME280;35974;47.752;10.290;2023-03-04T02:15:05;94119.66;;;-1.50;100.00
50093;BME280;35974;47.752;10.290;2023-03-04T02:17:32;94132.69;;;-1.41;100.00
50093;BME280;35974;47.752;10.290;2023-03-04T02:20:28;94119.53;;;-1.27;100.00
50093;BME280;35974;47.752;10.290;2023-03-04T02:25:42;94104.72;;;-1.02;100.00
50093;BME280;35974;47.752;10.290;2023-03-04T02:28:10;94113.22;;;-1.23;100.00
50093;BME280;35974;47.752;10.290;2023-03-04T02:30:37;94072.22;;;-1.55;100.00
50093;BME280;35974;47.752;10.290;2023-03-04T02:33:03;94088.19;;;-1.52;100.00
50093;BME280;35974;47.752;10.290;2023-03-04T02:35:30;94078.03;;;-1.74;100.00
50093;BME280;35974;47.752;10.290;2023-03-04T02:37:57;94094.88;;;-1.60;100.00
50093;BME280;35974;47.752;10.290;2023-03-04T02:40:27;94074.16;;;-1.90;100.00
50093;BME280;35974;47.752;10.290;2023-03-04T02:42:57;94112.81;;;-1.81;100.00
50093;BME280;35974;47.752;10.290;2023-03-04T02:47:56;94113.13;;;-2.07;100.00
50093;BME280;35974;47.752;10.290;2023-03-04T02:50:22;94096.53;;;-2.24;100.00
50093;BME280;35974;47.752;10.290;2023-03-04T02:52:50;94093.25;;;-2.26;100.00
50093;BME280;35974;47.752;10.290;2023-03-04T02:55:16;94120.16;;;-2.09;100.00
50093;BME280;35974;47.752;10.290;2023-03-04T02:57:42;94094.44;;;-2.30;100.00
50093;BME280;35974;47.752;10.290;2023-03-04T03:00:09;94106.19;;;-2.28;100.00
50093;BME280;35974;47.752;10.290;2023-03-04T03:02:36;94103.19;;;-2.33;100.00
50093;BME280;35974;47.752;10.290;2023-03-04T03:05:02;94103.41;;;-2.36;100.00
50093;BME280;35974;47.752;10.290;2023-03-04T03:07:29;94089.19;;;-2.29;100.00
50093;BME280;35974;47.752;10.290;2023-03-04T03:09:55;94112.44;;;-2.09;100.00
50093;BME280;35974;47.752;10.290;2023-03-04T03:12:22;94082.44;;;-2.30;100.00
50093;BME280;35974;47.752;10.290;2023-03-04T03:14:48;94083.88;;;-2.37;100.00
50093;BME280;35974;47.752;10.290;2023-03-04T03:17:14;94100.59;;;-2.22;100.00
50093;BME280;35974;47.752;10.290;2023-03-04T03:19:41;94092.19;;;-2.12;100.00
50093;BME280;35974;47.752;10.290;2023-03-04T03:22:08;94112.41;;;-1.98;100.00
50093;BME280;35974;47.752;10.290;2023-03-04T03:24:34;94095.88;;;-2.05;100.00
50093;BME280;35974;47.752;10.290;2023-03-04T03:27:01;94095.16;;;-1.96;100.00
50093;BME280;35974;47.752;10.290;2023-03-04T03:29:27;94106.63;;;-1.79;100.00
50093;BME280;35974;47.752;10.290;2023-03-04T03:31:54;94087.72;;;-1.78;100.00
50093;BME280;35974;47.752;10.290;2023-03-04T03:34:22;94086.94;;;-1.78;100.00
50093;BME280;35974;47.752;10.290;2023-03-04T03:36:48;94099.06;;;-1.38;100.00
50093;BME280;35974;47.752;10.290;2023-03-04T03:39:15;94084.81;;;-1.31;100.00
50093;BME280;35974;47.752;10.290;2023-03-04T03:41:41;94082.19;;;-1.62;100.00
50093;BME280;35974;47.752;10.290;2023-03-04T03:44:08;94104.97;;;-1.48;100.00
50093;BME280;35974;47.752;10.290;2023-03-04T03:46:34;94081.03;;;-1.69;100.00
50093;BME280;35974;47.752;10.290;2023-03-04T03:49:00;94089.19;;;-1.64;100.00
50093;BME280;35974;47.752;10.290;2023-03-04T03:51:27;94074.53;;;-1.73;100.00
50093;BME280;35974;47.752;10.290;2023-03-04T03:53:53;94076.66;;;-1.78;100.00
50093;BME280;35974;47.752;10.290;2023-03-04T03:56:20;94100.81;;;-1.60;100.00
50093;BME280;35974;47.752;10.290;2023-03-04T03:58:46;94097.34;;;-1.59;100.00
50093;BME280;35974;47.752;10.290;2023-03-04T04:01:14;94109.22;;;-1.58;100.00
50093;BME280;35974;47.752;10.290;2023-03-04T04:03:40;94112.97;;;-1.62;100.00
50093;BME280;35974;47.752;10.290;2023-03-04T04:06:07;94096.69;;;-1.72;100.00
50093;BME280;35974;47.752;10.290;2023-03-04T04:08:33;94092.13;;;-1.69;100.00
50093;BME280;35974;47.752;10.290;2023-03-04T04:10:59;94116.59;;;-1.64;100.00
50093;BME280;35974;47.752;10.290;2023-03-04T04:13:26;94114.84;;;-1.64;100.00
50093;BME280;35974;47.752;10.290;2023-03-04T04:15:53;94097.44;;;-1.81;100.00
50093;BME280;35974;47.752;10.290;2023-03-04T04:18:19;94094.97;;;-1.51;100.00
50093;BME280;35974;47.752;10.290;2023-03-04T04:20:46;94089.50;;;-1.78;100.00
50093;BME280;35974;47.752;10.290;2023-03-04T04:23:12;94108.09;;;-1.65;100.00
50093;BME280;35974;47.752;10.290;2023-03-04T04:25:39;94100.69;;;-1.79;100.00
50093;BME280;35974;47.752;10.290;2023-03-04T04:28:05;94102.53;;;-1.70;100.00
50093;BME280;35974;47.752;10.290;2023-03-04T04:30:31;94101.38;;;-1.77;100.00
50093;BME280;35974;47.752;10.290;2023-03-04T04:32:58;94077.41;;;-1.88;100.00
50093;BME280;35974;47.752;10.290;2023-03-04T04:35:27;94106.44;;;-1.66;100.00
50093;BME280;35974;47.752;10.290;2023-03-04T04:37:53;94095.69;;;-1.60;100.00
50093;BME280;35974;47.752;10.290;2023-03-04T04:40:20;94104.06;;;-1.58;100.00
50093;BME280;35974;47.752;10.290;2023-03-04T04:42:46;94092.44;;;-1.62;100.00
50093;BME280;35974;47.752;10.290;2023-03-04T04:45:13;94107.09;;;-1.53;100.00
50093;BME280;35974;47.752;10.290;2023-03-04T04:47:39;94104.06;;;-1.58;100.00
50093;BME280;35974;47.752;10.290;2023-03-04T04:50:06;94085.44;;;-1.60;100.00
50093;BME280;35974;47.752;10.290;2023-03-04T04:52:32;94081.38;;;-1.62;100.00
50093;BME280;35974;47.752;10.290;2023-03-04T04:54:59;94099.53;;;-1.33;100.00
50093;BME280;35974;47.752;10.290;2023-03-04T04:57:25;94079.81;;;-1.54;100.00
50093;BME280;35974;47.752;10.290;2023-03-04T04:59:52;94077.78;;;-1.71;100.00
50093;BME280;35974;47.752;10.290;2023-03-04T05:02:18;94098.44;;;-1.52;100.00
50093;BME280;35974;47.752;10.290;2023-03-04T05:04:45;94078.41;;;-1.58;100.00
50093;BME280;35974;47.752;10.290;2023-03-04T05:07:11;94070.53;;;-1.66;100.00
50093;BME280;35974;47.752;10.290;2023-03-04T05:09:38;94085.44;;;-1.60;100.00
50093;BME280;35974;47.752;10.290;2023-03-04T05:12:04;94078.94;;;-1.64;100.00
50093;BME280;35974;47.752;10.290;2023-03-04T05:14:31;94076.88;;;-1.70;100.00
50093;BME280;35974;47.752;10.290;2023-03-04T05:16:57;94097.25;;;-1.69;100.00
50093;BME280;35974;47.752;10.290;2023-03-04T05:19:23;94094.56;;;-1.67;100.00
50093;BME280;35974;47.752;10.290;2023-03-04T05:21:50;94082.44;;;-1.65;100.00
50093;BME280;35974;47.752;10.290;2023-03-04T05:24:16;94089.19;;;-1.64;100.00
50093;BME280;35974;47.752;10.290;2023-03-04T05:26:43;94094.81;;;-1.70;100.00
50093;BME280;35974;47.752;10.290;2023-03-04T05:29:09;94093.34;;;-1.84;100.00
50093;BME280;35974;47.752;10.290;2023-03-04T05:31:36;94102.56;;;-1.81;100.00
50093;BME280;35974;47.752;10.290;2023-03-04T05:34:02;94082.03;;;-1.81;100.00
50093;BME280;35974;47.752;10.290;2023-03-04T05:36:29;94090.91;;;-1.86;100.00
50093;BME280;35974;47.752;10.290;2023-03-04T05:38:55;94117.97;;;-1.81;100.00
50093;BME280;35974;47.752;10.290;2023-03-04T05:41:22;94079.16;;;-1.88;100.00
50093;BME280;35974;47.752;10.290;2023-03-04T05:43:49;94099.00;;;-1.69;100.00
50093;BME280;35974;47.752;10.290;2023-03-04T05:46:17;94116.22;;;-1.60;100.00
50093;BME280;35974;47.752;10.290;2023-03-04T05:48:44;94094.56;;;-1.67;100.00
50093;BME280;35974;47.752;10.290;2023-03-04T05:51:11;94104.78;;;-1.56;100.00
50093;BME280;35974;47.752;10.290;2023-03-04T05:53:37;94094.69;;;-1.69;100.00
50093;BME280;35974;47.752;10.290;2023-03-04T05:56:07;94086.16;;;-1.69;100.00
50093;BME280;35974;47.752;10.290;2023-03-04T05:58:33;94092.69;;;-1.65;100.00
50093;BME280;35974;47.752;10.290;2023-03-04T06:01:07;94116.34;;;-1.40;100.00
50093;BME280;35974;47.752;10.290;2023-03-04T06:03:34;94101.50;;;-1.58;100.00
50093;BME280;35974;47.752;10.290;2023-03-04T06:06:01;94102.22;;;-1.56;100.00
50093;BME280;35974;47.752;10.290;2023-03-04T06:08:27;94124.25;;;-1.32;100.00
50093;BME280;35974;47.752;10.290;2023-03-04T06:10:55;94129.88;;;-1.38;100.00
50093;BME280;35974;47.752;10.290;2023-03-04T06:13:22;94136.41;;;-1.34;100.00
50093;BME280;35974;47.752;10.290;2023-03-04T06:15:53;94132.63;;;-1.30;100.00
50093;BME280;35974;47.752;10.290;2023-03-04T06:18:20;94111.97;;;-1.50;100.00
50093;BME280;35974;47.752;10.290;2023-03-04T06:20:47;94126.25;;;-1.57;100.00
50093;BME280;35974;47.752;10.290;2023-03-04T06:23:14;94130.13;;;-1.41;100.00
50093;BME280;35974;47.752;10.290;2023-03-04T06:25:41;94125.25;;;-1.44;100.00
50093;BME280;35974;47.752;10.290;2023-03-04T06:28:07;94149.66;;;-1.29;100.00
50093;BME280;35974;47.752;10.290;2023-03-04T06:30:36;94136.16;;;-1.31;100.00
50093;BME280;35974;47.752;10.290;2023-03-04T06:33:02;94130.41;;;-1.44;100.00
50093;BME280;35974;47.752;10.290;2023-03-04T06:35:29;94130.13;;;-1.41;100.00
50093;BME280;35974;47.752;10.290;2023-03-04T06:37:55;94132.50;;;-1.50;100.00
50093;BME280;35974;47.752;10.290;2023-03-04T06:40:22;94134.88;;;-1.37;100.00
50093;BME280;35974;47.752;10.290;2023-03-04T06:42:48;94136.72;;;-1.27;100.00
50093;BME280;35974;47.752;10.290;2023-03-04T06:45:15;94141.53;;;-1.34;100.00
50093;BME280;35974;47.752;10.290;2023-03-04T06:47:41;94118.50;;;-1.45;100.00
50093;BME280;35974;47.752;10.290;2023-03-04T06:50:11;94132.78;;;-1.53;100.00
50093;BME280;35974;47.752;10.290;2023-03-04T06:52:38;94132.50;;;-1.50;100.00
50093;BME280;35974;47.752;10.290;2023-03-04T06:55:05;94124.69;;;-1.80;100.00
50093;BME280;35974;47.752;10.290;2023-03-04T06:57:32;94129.63;;;-1.89;100.00
50093;BME280;35974;47.752;10.290;2023-03-04T06:59:58;94140.59;;;-1.87;100.00
50093;BME280;35974;47.752;10.290;2023-03-04T07:02:25;94139.91;;;-2.00;100.00
50093;BME280;35974;47.752;10.290;2023-03-04T07:04:51;94158.03;;;-1.80;100.00
50093;BME280;35974;47.752;10.290;2023-03-04T07:07:18;94143.44;;;-2.01;100.00
50093;BME280;35974;47.752;10.290;2023-03-04T07:09:44;94170.75;;;-1.79;100.00
50093;BME280;35974;47.752;10.290;2023-03-04T07:12:10;94160.59;;;-1.80;100.00
50093;BME280;35974;47.752;10.290;2023-03-04T07:14:37;94141.25;;;-1.73;100.00
50093;BME280;35974;47.752;10.290;2023-03-04T07:17:03;94153.31;;;-1.53;100.00
50093;BME280;35974;47.752;10.290;2023-03-04T07:19:30;94137.63;;;-1.50;100.00
50093;BME280;35974;47.752;10.290;2023-03-04T07:21:56;94164.84;;;-1.26;100.00
50093;BME280;35974;47.752;10.290;2023-03-04T07:24:23;94143.56;;;-1.17;100.00
50093;BME280;35974;47.752;10.290;2023-03-04T07:26:49;94174.84;;;-0.81;100.00
50093;BME280;35974;47.752;10.290;2023-03-04T07:29:16;94157.38;;;-1.08;100.00
50093;BME280;35974;47.752;10.290;2023-03-04T07:31:42;94151.94;;;-1.15;100.00
50093;BME280;35974;47.752;10.290;2023-03-04T07:34:11;94170.72;;;-0.93;100.00
50093;BME280;35974;47.752;10.290;2023-03-04T07:36:39;94171.84;;;-0.86;100.00
50093;BME280;35974;47.752;10.290;2023-03-04T07:39:06;94155.78;;;-0.99;100.00
50093;BME280;35974;47.752;10.290;2023-03-04T07:41:33;94144.84;;;-1.01;100.00
50093;BME280;35974;47.752;10.290;2023-03-04T07:44:03;94179.81;;;-0.58;100.00
50093;BME280;35974;47.752;10.290;2023-03-04T07:46:31;94183.28;;;-0.69;100.00
50093;BME280;35974;47.752;10.290;2023-03-04T07:48:57;94166.47;;;-0.83;100.00
50093;BME280;35974;47.752;10.290;2023-03-04T07:51:25;94186.72;;;-0.80;100.00
50093;BME280;35974;47.752;10.290;2023-03-04T07:53:56;94174.34;;;-0.75;100.00
50093;BME280;35974;47.752;10.290;2023-03-04T07:56:25;94172.38;;;-0.61;100.00
50093;BME280;35974;47.752;10.290;2023-03-04T07:58:52;94175.19;;;-0.64;100.00
50093;BME280;35974;47.752;10.290;2023-03-04T08:01:33;94179.22;;;-0.71;100.00
50093;BME280;35974;47.752;10.290;2023-03-04T08:04:00;94168.75;;;-0.49;100.00
50093;BME280;35974;47.752;10.290;2023-03-04T08:06:27;94186.97;;;-0.31;100.00
50093;BME280;35974;47.752;10.290;2023-03-04T08:08:56;94171.72;;;-0.53;100.00
50093;BME280;35974;47.752;10.290;2023-03-04T08:11:23;94185.97;;;-0.40;100.00
50093;BME280;35974;47.752;10.290;2023-03-04T08:13:50;94193.28;;;-0.45;100.00
50093;BME280;35974;47.752;10.290;2023-03-04T08:16:20;94161.22;;;-0.41;100.00
50093;BME280;35974;47.752;10.290;2023-03-04T08:18:51;94179.41;;;-0.32;100.00
50093;BME280;35974;47.752;10.290;2023-03-04T08:21:22;94155.47;;;-0.54;100.00
50093;BME280;35974;47.752;10.290;2023-03-04T08:23:49;94184.50;;;-0.42;100.00
50093;BME280;35974;47.752;10.290;2023-03-04T08:26:26;94157.41;;;-0.46;100.00
50093;BME280;35974;47.752;10.290;2023-03-04T08:29:01;94181.28;;;-0.25;100.00
50093;BME280;35974;47.752;10.290;2023-03-04T08:31:30;94189.72;;;-0.23;100.00
50093;BME280;35974;47.752;10.290;2023-03-04T08:34:04;94181.28;;;-0.25;100.00
50093;BME280;35974;47.752;10.290;2023-03-04T08:36:32;94175.66;;;-0.09;100.00
50093;BME280;35974;47.752;10.290;2023-03-04T08:39:02;94158.06;;;-0.04;100.00
50093;BME280;35974;47.752;10.290;2023-03-04T08:41:29;94182.53;;;0.51;100.00
50093;BME280;35974;47.752;10.290;2023-03-04T08:43:56;94168.56;;;0.63;100.00
50093;BME280;35974;47.752;10.290;2023-03-04T08:46:22;94148.91;;;0.82;100.00
50093;BME280;35974;47.752;10.290;2023-03-04T08:48:49;94159.59;;;1.06;100.00
50093;BME280;35974;47.752;10.290;2023-03-04T08:51:15;94154.28;;;1.18;100.00
50093;BME280;35974;47.752;10.290;2023-03-04T08:53:42;94154.00;;;1.21;100.00
50093;BME280;35974;47.752;10.290;2023-03-04T08:56:10;94174.63;;;1.21;100.00
50093;BME280;35974;47.752;10.290;2023-03-04T08:58:36;94163.53;;;1.11;100.00
50093;BME280;35974;47.752;10.290;2023-03-04T09:01:03;94148.84;;;1.21;100.00
50093;BME280;35974;47.752;10.290;2023-03-04T09:03:32;94130.19;;;0.99;100.00
50093;BME280;35974;47.752;10.290;2023-03-04T09:06:00;94144.28;;;0.95;100.00
50093;BME280;35974;47.752;10.290;2023-03-04T09:08:27;94150.19;;;1.25;100.00
50093;BME280;35974;47.752;10.290;2023-03-04T09:10:53;94169.91;;;1.54;100.00
50093;BME280;35974;47.752;10.290;2023-03-04T09:13:21;94169.75;;;1.93;100.00
50093;BME280;35974;47.752;10.290;2023-03-04T09:15:52;94166.97;;;2.04;100.00
50093;BME280;35974;47.752;10.290;2023-03-04T09:18:20;94133.94;;;1.80;100.00
50093;BME280;35974;47.752;10.290;2023-03-04T09:20:47;94137.44;;;2.16;100.00
50093;BME280;35974;47.752;10.290;2023-03-04T09:23:14;94151.94;;;2.17;100.00
50093;BME280;35974;47.752;10.290;2023-03-04T09:25:41;94149.63;;;1.96;100.00
50093;BME280;35974;47.752;10.290;2023-03-04T09:28:09;94163.88;;;1.73;100.00
50093;BME280;35974;47.752;10.290;2023-03-04T09:30:36;94145.66;;;1.74;100.00
50093;BME280;35974;47.752;10.290;2023-03-04T09:33:02;94152.75;;;2.00;100.00
50093;BME280;35974;47.752;10.290;2023-03-04T09:35:29;94151.38;;;2.24;100.00
50093;BME280;35974;47.752;10.290;2023-03-04T09:37:56;94118.16;;;2.11;100.00
50093;BME280;35974;47.752;10.290;2023-03-04T09:40:49;94153.22;;;2.67;100.00
50093;BME280;35974;47.752;10.290;2023-03-04T09:43:21;94153.44;;;2.74;100.00
50093;BME280;35974;47.752;10.290;2023-03-04T09:45:52;94136.63;;;2.70;100.00
50093;BME280;35974;47.752;10.290;2023-03-04T09:48:23;94145.75;;;2.82;100.00
50093;BME280;35974;47.752;10.290;2023-03-04T09:51:05;94131.47;;;2.70;100.00
50093;BME280;35974;47.752;10.290;2023-03-04T09:56:09;94143.97;;;3.01;100.00
50093;BME280;35974;47.752;10.290;2023-03-04T10:01:35;94151.44;;;3.30;100.00
50093;BME280;35974;47.752;10.290;2023-03-04T10:04:15;94154.00;;;3.56;100.00
50093;BME280;35974;47.752;10.290;2023-03-04T10:06:43;94128.84;;;3.40;100.00
50093;BME280;35974;47.752;10.290;2023-03-04T10:09:20;94118.97;;;3.70;100.00
50093;BME280;35974;47.752;10.290;2023-03-04T10:11:58;94137.22;;;3.69;100.00
50093;BME280;35974;47.752;10.290;2023-03-04T10:14:37;94144.03;;;3.70;100.00
50093;BME280;35974;47.752;10.290;2023-03-04T10:17:44;94146.41;;;3.97;100.00
50093;BME280;35974;47.752;10.290;2023-03-04T10:22:47;94142.59;;;4.18;100.00
50093;BME280;35974;47.752;10.290;2023-03-04T10:25:27;94137.41;;;4.10;100.00
50093;BME280;35974;47.752;10.290;2023-03-04T10:28:02;94130.69;;;4.58;100.00
50093;BME280;35974;47.752;10.290;2023-03-04T10:30:41;94123.91;;;4.65;100.00
50093;BME280;35974;47.752;10.290;2023-03-04T10:33:12;94120.66;;;4.96;100.00
50093;BME280;35974;47.752;10.290;2023-03-04T10:35:44;94098.59;;;4.92;100.00
50093;BME280;35974;47.752;10.290;2023-03-04T10:38:14;94101.84;;;5.10;100.00
50093;BME280;35974;47.752;10.290;2023-03-04T10:40:41;94096.31;;;4.97;100.00
50093;BME280;35974;47.752;10.290;2023-03-04T10:43:19;94096.69;;;4.94;100.00
50093;BME280;35974;47.752;10.290;2023-03-04T10:45:46;94110.59;;;5.09;100.00
50093;BME280;35974;47.752;10.290;2023-03-04T10:48:26;94101.84;;;5.10;100.00
50093;BME280;35974;47.752;10.290;2023-03-04T10:50:53;94072.22;;;4.80;100.00
50093;BME280;35974;47.752;10.290;2023-03-04T10:53:37;94104.47;;;4.94;100.00
50093;BME280;35974;47.752;10.290;2023-03-04T10:56:37;94106.19;;;5.26;100.00
50093;BME280;35974;47.752;10.290;2023-03-04T11:02:15;94075.03;;;5.82;100.00
50093;BME280;35974;47.752;10.290;2023-03-04T11:04:42;94102.09;;;5.96;100.00
50093;BME280;35974;47.752;10.290;2023-03-04T11:07:09;94101.41;;;6.02;100.00
50093;BME280;35974;47.752;10.290;2023-03-04T11:09:36;94102.78;;;5.82;100.00
50093;BME280;35974;47.752;10.290;2023-03-04T11:12:12;94094.78;;;5.92;100.00
50093;BME280;35974;47.752;10.290;2023-03-04T11:14:44;94070.09;;;5.96;100.00
50093;BME280;35974;47.752;10.290;2023-03-04T11:17:24;94088.16;;;6.20;100.00
50093;BME280;35974;47.752;10.290;2023-03-04T11:20:11;94083.66;;;6.14;100.00
50093;BME280;35974;47.752;10.290;2023-03-04T11:22:40;94058.16;;;5.78;100.00
50093;BME280;35974;47.752;10.290;2023-03-04T11:25:33;94068.47;;;5.95;100.00
50093;BME280;35974;47.752;10.290;2023-03-04T11:28:05;94081.59;;;6.33;100.00
50093;BME280;35974;47.752;10.290;2023-03-04T11:30:49;94090.63;;;6.45;100.00
50093;BME280;35974;47.752;10.290;2023-03-04T11:33:25;94089.75;;;6.53;100.00
50093;BME280;35974;47.752;10.290;2023-03-04T11:36:05;94064.03;;;6.35;98.77
50093;BME280;35974;47.752;10.290;2023-03-04T11:38:46;94067.31;;;6.29;100.00
50093;BME280;35974;47.752;10.290;2023-03-04T11:41:37;94077.25;;;6.25;98.71
50093;BME280;35974;47.752;10.290;2023-03-04T11:44:05;94071.78;;;6.43;98.04
50093;BME280;35974;47.752;10.290;2023-03-04T11:49:53;94082.50;;;6.40;98.84
50093;BME280;35974;47.752;10.290;2023-03-04T12:06:23;94062.94;;;6.90;92.01
50093;BME280;35974;47.752;10.290;2023-03-04T12:14:33;94063.22;;;6.57;97.78
50093;BME280;35974;47.752;10.290;2023-03-04T12:22:36;94052.25;;;7.23;93.14
50093;BME280;35974;47.752;10.290;2023-03-04T12:37:07;94017.13;;;6.51;92.55
50093;BME280;35974;47.752;10.290;2023-03-04T12:45:39;94029.94;;;6.76;91.41
50093;BME280;35974;47.752;10.290;2023-03-04T12:51:12;94016.41;;;6.19;91.62
50093;BME280;35974;47.752;10.290;2023-03-04T12:54:12;94031.38;;;6.09;93.96
50093;BME280;35974;47.752;10.290;2023-03-04T12:56:49;94021.19;;;6.31;94.74
50093;BME280;35974;47.752;10.290;2023-03-04T12:59:19;94010.28;;;5.81;92.91
50093;BME280;35974;47.752;10.290;2023-03-04T13:02:09;94025.91;;;6.04;94.83
50093;BME280;35974;47.752;10.290;2023-03-04T13:07:34;94002.88;;;6.47;92.35
50093;BME280;35974;47.752;10.290;2023-03-04T13:10:15;93985.50;;;6.63;90.35
50093;BME280;35974;47.752;10.290;2023-03-04T13:12:57;94012.53;;;6.15;94.02
50093;BME280;35974;47.752;10.290;2023-03-04T13:25:45;94000.31;;;6.77;90.48
50093;BME280;35974;47.752;10.290;2023-03-04T13:28:21;93981.63;;;6.20;95.91
50093;BME280;35974;47.752;10.290;2023-03-04T13:43:43;93983.75;;;6.40;95.35
50093;BME280;35974;47.752;10.290;2023-03-04T13:51:38;93975.91;;;6.25;91.87
50093;BME280;35974;47.752;10.290;2023-03-04T13:57:15;93977.28;;;6.36;94.97
50093;BME280;35974;47.752;10.290;2023-03-04T13:59:47;93966.84;;;6.59;93.89
50093;BME280;35974;47.752;10.290;2023-03-04T14:02:16;93976.94;;;6.39;99.02
50093;BME280;35974;47.752;10.290;2023-03-04T14:04:58;93947.06;;;6.20;93.46
50093;BME280;35974;47.752;10.290;2023-03-04T14:07:34;93972.09;;;6.36;93.27
50093;BME280;35974;47.752;10.290;2023-03-04T14:10:18;93967.19;;;6.56;94.87
50093;BME280;35974;47.752;10.290;2023-03-04T14:12:48;93950.47;;;6.88;92.37
50093;BME280;35974;47.752;10.290;2023-03-04T14:15:29;93964.56;;;6.41;93.38
50093;BME280;35974;47.752;10.290;2023-03-04T14:17:58;93944.97;;;6.15;94.06
50093;BME280;35974;47.752;10.290;2023-03-04T14:22:54;93963.81;;;6.55;91.56
50093;BME280;35974;47.752;10.290;2023-03-04T14:25:26;93958.53;;;6.93;90.93
50093;BME280;35974;47.752;10.290;2023-03-04T14:28:17;93894.31;;;6.79;89.57
50093;BME280;35974;47.752;10.290;2023-03-04T14:30:53;93930.75;;;7.09;91.26
50093;BME280;35974;47.752;10.290;2023-03-04T14:33:23;93940.25;;;7.31;93.11
50093;BME280;35974;47.752;10.290;2023-03-04T14:35:52;93912.81;;;6.84;90.22
50093;BME280;35974;47.752;10.290;2023-03-04T14:38:33;93948.69;;;7.04;92.78
50093;BME280;35974;47.752;10.290;2023-03-04T14:41:07;93931.25;;;7.19;92.71
50093;BME280;35974;47.752;10.290;2023-03-04T14:43:59;93905.69;;;7.08;93.15